Time;durP1;ratioP1;P1;durP2;ratioP2;P2;SDS_P1;SDS_P2;PMS_P1;PMS_P2;Temp;Humidity;BMP_temperature;BMP_pressure;BME280_temperature;BME280_humidity;BME280_pressure;Samples;Min_cycle;Max_cycle;Signal;HPM_P1;HPM_P2
2023/01/05 00:01:25;;;;;;;1.23;0.60;;;;;;;-0.42;67.22;98981.31;5072858;28;20125;-55
2023/01/05 00:03:50;;;;;;;1.88;0.70;;;;;;;-0.38;67.52;98982.03;5072879;28;20071;-50
2023/01/05 00:06:17;;;;;;;4.43;0.90;;;;;;;-0.39;66.90;98978.53;5073628;28;20058;-56
2023/01/05 00:08:43;;;;;;;1.13;0.70;;;;;;;-0.40;67.28;98982.09;5073657;28;20093;-56
2023/01/05 00:22:31;;;;;;;2.00;1.45;;;;;;;-0.14;65.10;98974.69;5023631;28;20094;-58
2023/01/05 00:24:58;;;;;;;5.05;1.52;;;;;;;-0.35;64.80;98972.22;5073190;28;20072;-54
2023/01/05 00:27:25;;;;;;;2.83;1.65;;;;;;;-0.41;64.87;98974.28;5072469;28;20039;-56
2023/01/05 00:29:50;;;;;;;3.03;1.88;;;;;;;-0.42;64.52;98975.22;5072127;28;20121;-55
2023/01/05 00:32:16;;;;;;;2.80;1.90;;;;;;;-0.42;64.43;98980.47;5072942;28;20399;-52
2023/01/05 00:34:41;;;;;;;2.97;1.80;;;;;;;-0.63;64.49;98941.16;5073073;28;20483;-54
2023/01/05 00:37:07;;;;;;;3.17;2.30;;;;;;;-0.37;63.84;98968.78;5072371;28;20089;-56
2023/01/05 00:39:32;;;;;;;3.38;2.28;;;;;;;-0.47;62.98;98978.06;5072724;28;20054;-58
2023/01/05 00:41:58;;;;;;;4.93;2.72;;;;;;;-0.58;63.10;98962.81;5073126;28;20032;-54
2023/01/05 00:44:23;;;;;;;3.45;2.55;;;;;;;-0.56;63.13;98968.84;5072515;28;20093;-55
2023/01/05 00:46:49;;;;;;;3.85;2.45;;;;;;;-0.60;63.55;98976.03;5072477;28;20064;-52
2023/01/05 00:49:15;;;;;;;3.85;2.28;;;;;;;-0.59;63.36;98969.00;5072392;28;20060;-55
2023/01/05 00:51:40;;;;;;;4.07;2.65;;;;;;;-0.56;63.21;98965.38;5073416;28;20124;-49
2023/01/05 00:54:06;;;;;;;3.95;2.60;;;;;;;-0.54;63.63;98960.88;5072327;28;20029;-53
2023/01/05 00:56:31;;;;;;;5.57;2.88;;;;;;;-0.55;63.22;98960.03;5072102;28;20028;-57
2023/01/05 00:58:56;;;;;;;4.68;2.58;;;;;;;-0.60;63.40;98962.03;5072358;28;20372;-57
2023/01/05 01:01:22;;;;;;;3.60;2.60;;;;;;;-0.85;63.61;98923.78;5072895;28;20124;-56
2023/01/05 01:03:47;;;;;;;4.28;2.72;;;;;;;-0.69;63.80;98957.22;5071579;28;20141;-56
2023/01/05 01:06:13;;;;;;;2.97;2.35;;;;;;;-0.77;64.28;98944.44;5072186;28;20024;-54
2023/01/05 01:08:38;;;;;;;4.30;2.88;;;;;;;-0.90;63.70;98924.00;5072399;28;20036;-55
2023/01/05 01:11:08;;;;;;;4.28;2.53;;;;;;;-0.74;64.44;98955.66;5072228;28;20059;-55
2023/01/05 01:13:34;;;;;;;4.93;2.53;;;;;;;-0.79;64.42;98955.03;5072151;28;20468;-56
2023/01/05 01:16:08;;;;;;;4.47;2.80;;;;;;;-1.00;63.99;98914.88;5072053;28;20032;-56
2023/01/05 01:18:34;;;;;;;5.47;2.90;;;;;;;-0.81;63.77;98950.78;5072326;28;20414;-56
2023/01/05 01:21:00;;;;;;;4.75;3.30;;;;;;;-0.89;64.32;98953.78;5072687;28;20028;-53
2023/01/05 01:23:26;;;;;;;4.55;2.97;;;;;;;-0.93;64.49;98944.34;5071997;28;20032;-57
2023/01/05 01:25:51;;;;;;;4.90;3.22;;;;;;;-0.90;65.04;98944.19;5071940;28;20044;-56
2023/01/05 01:28:17;;;;;;;4.13;3.00;;;;;;;-0.87;64.06;98938.78;5072144;28;20047;-59
2023/01/05 01:30:42;;;;;;;4.25;2.78;;;;;;;-0.82;63.74;98946.47;5072044;28;20457;-53
2023/01/05 01:33:08;;;;;;;4.45;3.10;;;;;;;-0.82;63.88;98944.66;5071519;28;20044;-56
2023/01/05 01:35:36;;;;;;;3.78;2.78;;;;;;;-0.77;64.17;98945.28;5071436;28;20040;-54
2023/01/05 01:38:02;;;;;;;4.00;2.65;;;;;;;-0.85;63.87;98936.94;5071031;28;20025;-51
2023/01/05 01:40:27;;;;;;;3.90;2.88;;;;;;;-0.81;64.40;98945.53;5071006;28;20048;-55
2023/01/05 01:42:53;;;;;;;5.60;3.38;;;;;;;-0.81;64.46;98942.91;5071960;28;20029;-56
2023/01/05 01:45:23;;;;;;;5.30;3.05;;;;;;;-0.81;64.31;98945.53;5071873;28;20028;-55
2023/01/05 01:47:58;;;;;;;4.35;3.00;;;;;;;-0.78;64.18;98950.63;5072052;28;20024;-51
2023/01/05 01:50:26;;;;;;;4.78;3.22;;;;;;;-0.86;64.54;98940.50;5071962;28;20445;-54
2023/01/05 01:52:56;;;;;;;5.05;3.50;;;;;;;-0.85;64.06;98944.81;5071514;28;20021;-54
2023/01/05 01:55:22;;;;;;;5.13;3.25;;;;;;;-0.90;64.08;98941.56;5070995;28;20060;-53
2023/01/05 01:57:49;;;;;;;4.95;3.40;;;;;;;-0.94;63.89;98951.34;5071721;28;20071;-55
2023/01/05 02:00:16;;;;;;;4.35;3.00;;;;;;;-1.04;63.75;98924.66;5073588;28;20028;-51
2023/01/05 02:02:41;;;;;;;6.07;3.63;;;;;;;-0.91;63.81;98940.69;5076269;28;20098;-53
2023/01/05 02:05:10;;;;;;;4.75;3.50;;;;;;;-1.01;63.81;98937.66;5075750;28;20033;-54
2023/01/05 02:07:42;;;;;;;4.68;3.50;;;;;;;-1.00;64.59;98933.25;5075761;28;20032;-52
2023/01/05 02:10:07;;;;;;;5.57;3.67;;;;;;;-0.98;64.32;98946.31;5076017;28;20496;-54
2023/01/05 02:12:52;;;;;;;5.50;3.80;;;;;;;-0.86;64.56;98940.50;5075344;28;20115;-56
2023/01/05 02:15:33;;;;;;;5.85;3.78;;;;;;;-0.82;64.23;98933.31;5075570;28;20032;-54
2023/01/05 02:17:59;;;;;;;5.97;4.47;;;;;;;-0.91;63.41;98935.44;5075670;28;20044;-51
2023/01/05 02:20:45;;;;;;;7.05;3.90;;;;;;;-0.92;63.53;98932.91;5075385;28;20028;-53
2023/01/05 02:23:23;;;;;;;5.68;3.72;;;;;;;-1.05;62.79;98936.09;5075255;28;20035;-53
2023/01/05 02:26:00;;;;;;;5.35;3.28;;;;;;;-1.12;62.89;98929.44;5076016;28;20028;-53
2023/01/05 02:28:43;;;;;;;4.30;3.08;;;;;;;-1.16;62.46;98939.22;5075786;28;20032;-55
2023/01/05 02:31:24;;;;;;;5.32;2.92;;;;;;;-1.20;62.98;98932.41;5075158;28;20044;-51
2023/01/05 02:34:40;;;;;;;4.45;2.63;;;;;;;-1.19;63.22;98930.66;5075316;28;20051;-56
2023/01/05 02:37:23;;;;;;;3.67;2.60;;;;;;;-1.33;62.84;98921.63;5049381;28;20052;-56
2023/01/05 02:39:58;;;;;;;5.47;3.17;;;;;;;-1.41;63.33;98926.41;5073789;28;20483;-52
2023/01/05 02:42:26;;;;;;;5.28;2.88;;;;;;;-1.42;63.66;98924.69;5074917;28;20045;-52
2023/01/05 02:44:51;;;;;;;3.95;2.75;;;;;;;-1.48;64.22;98922.31;5074546;28;20039;-57
2023/01/05 02:47:26;;;;;;;4.43;2.88;;;;;;;-1.40;63.97;98925.47;5075712;28;20037;-55
2023/01/05 02:50:23;;;;;;;5.13;2.92;;;;;;;-1.39;63.80;98910.56;5074933;28;20089;-53
2023/01/05 02:53:19;;;;;;;4.38;2.80;;;;;;;-1.42;63.29;98919.44;5074828;28;20033;-56
2023/01/05 02:55:51;;;;;;;4.20;2.75;;;;;;;-1.59;63.04;98918.44;5075299;28;20048;-56
2023/01/05 02:58:22;;;;;;;4.85;2.88;;;;;;;-1.60;63.20;98924.59;5074935;28;20068;-51
2023/01/05 03:01:16;;;;;;;5.28;2.88;;;;;;;-1.55;63.33;98919.16;5074685;28;20065;-56
2023/01/05 03:03:48;;;;;;;4.15;2.88;;;;;;;-1.66;62.46;98911.75;5072656;28;20125;-56
2023/01/05 03:06:29;;;;;;;4.65;2.85;;;;;;;-1.64;63.09;98907.28;5075038;28;20032;-55
2023/01/05 03:08:58;;;;;;;4.65;3.03;;;;;;;-1.71;63.43;98910.25;5074770;28;20042;-56
2023/01/05 03:14:46;;;;;;;5.15;3.08;;;;;;;-1.63;62.84;98910.75;5074090;28;20028;-56
2023/01/05 03:17:17;;;;;;;6.88;3.20;;;;;;;-1.73;62.77;98902.44;5074970;28;20028;-57
2023/01/05 03:19:44;;;;;;;5.75;3.15;;;;;;;-1.72;62.17;98909.38;5074288;28;20390;-54
2023/01/05 03:37:24;;;;;;;4.65;2.97;;;;;;;-1.68;61.93;98897.84;5074125;28;20040;-54
2023/01/05 03:39:49;;;;;;;5.53;3.40;;;;;;;-1.83;62.35;98885.41;5073746;28;20075;-53
2023/01/05 03:42:15;;;;;;;5.72;3.53;;;;;;;-1.92;62.52;98886.69;5073909;28;20080;-54
2023/01/05 03:44:44;;;;;;;5.00;3.25;;;;;;;-1.97;62.35;98886.88;5073747;28;20090;-55
2023/01/05 03:47:10;;;;;;;5.57;3.92;;;;;;;-2.02;62.35;98892.34;5073750;28;20084;-58
2023/01/05 03:49:36;;;;;;;6.78;3.70;;;;;;;-2.22;62.52;98851.22;5074004;28;20024;-55
2023/01/05 03:52:02;;;;;;;5.38;3.80;;;;;;;-2.15;62.41;98870.19;5073680;28;20024;-53
2023/01/05 03:54:28;;;;;;;5.53;3.67;;;;;;;-2.14;61.72;98879.75;5073700;28;20078;-53
2023/01/05 03:56:53;;;;;;;4.50;2.95;;;;;;;-2.21;61.94;98870.44;5074422;28;20145;-54
2023/01/05 03:59:19;;;;;;;6.28;3.35;;;;;;;-2.38;61.82;98858.91;5073757;28;20437;-53
2023/01/05 04:01:45;;;;;;;5.97;3.30;;;;;;;-2.51;61.33;98837.63;5073090;28;20064;-52
2023/01/05 04:04:10;;;;;;;5.82;3.75;;;;;;;-2.33;62.07;98875.28;5073444;28;20128;-53
2023/01/05 04:06:36;;;;;;;6.00;3.35;;;;;;;-2.37;61.66;98880.75;5073669;28;20074;-51
2023/01/05 04:09:01;;;;;;;5.13;3.50;;;;;;;-2.39;62.00;98869.50;5073238;28;20025;-51
2023/01/05 04:11:27;;;;;;;5.95;4.18;;;;;;;-2.41;62.28;98866.91;5073095;28;20048;-55
2023/01/05 04:13:53;;;;;;;6.65;3.65;;;;;;;-2.45;61.67;98883.69;5074075;28;20073;-53
2023/01/05 04:16:18;;;;;;;7.07;3.80;;;;;;;-2.53;62.01;98865.66;5072181;28;20029;-53
2023/01/05 04:18:44;;;;;;;7.82;5.00;;;;;;;-2.51;62.20;98869.06;5072799;28;20032;-54
2023/01/05 04:21:10;;;;;;;5.68;3.83;;;;;;;-2.53;61.41;98876.16;5073326;28;20493;-56
2023/01/05 04:23:35;;;;;;;3.88;2.90;;;;;;;-2.57;61.91;98868.47;5072483;28;20025;-53
2023/01/05 04:26:01;;;;;;;5.50;3.33;;;;;;;-2.83;61.65;98831.13;5072610;28;20032;-56
2023/01/05 04:28:27;;;;;;;4.65;3.38;;;;;;;-2.61;62.27;98873.84;5073083;28;20032;-55
2023/01/05 04:30:54;;;;;;;5.75;3.47;;;;;;;-2.64;61.69;98865.28;5073429;28;20036;-53
2023/01/05 04:33:20;;;;;;;6.50;3.55;;;;;;;-2.58;61.92;98866.78;5073162;28;20051;-56
2023/01/05 04:35:46;;;;;;;4.57;3.35;;;;;;;-2.62;61.64;98855.59;5072638;28;20067;-57
2023/01/05 04:38:12;;;;;;;4.47;3.10;;;;;;;-2.64;61.27;98865.28;5072594;28;20060;-56
2023/01/05 04:40:38;;;;;;;6.85;3.03;;;;;;;-2.67;61.18;98862.75;5073043;28;20059;-55
2023/01/05 04:43:04;;;;;;;4.57;3.08;;;;;;;-2.74;61.21;98854.34;5072286;28;20063;-57
2023/01/05 04:45:29;;;;;;;5.32;3.28;;;;;;;-2.84;60.92;98829.41;5071886;28;20029;-54
2023/01/05 04:47:55;;;;;;;5.25;3.28;;;;;;;-2.70;61.61;98852.41;5072599;28;20181;-55
2023/01/05 04:50:20;;;;;;;6.65;3.58;;;;;;;-2.69;61.65;98851.50;5072960;28;20112;-52
2023/01/05 04:52:46;;;;;;;5.25;3.13;;;;;;;-2.65;61.97;98856.56;5072858;28;20123;-51
2023/01/05 04:55:11;;;;;;;5.18;3.30;;;;;;;-2.63;61.55;98848.66;5072593;28;20397;-52
2023/01/05 04:57:38;;;;;;;5.05;2.97;;;;;;;-2.63;60.89;98841.63;5072450;28;20370;-56
2023/01/05 05:00:04;;;;;;;5.30;3.05;;;;;;;-2.57;60.77;98837.03;5072731;28;20035;-57
2023/01/05 05:02:31;;;;;;;5.43;3.10;;;;;;;-2.57;61.15;98845.75;5072795;28;20064;-55
2023/01/05 05:04:56;;;;;;;4.07;3.10;;;;;;;-2.57;60.98;98843.13;5072510;28;20056;-54
2023/01/05 05:07:21;;;;;;;5.50;3.30;;;;;;;-2.62;60.73;98835.47;5072054;28;20113;-56
2023/01/05 05:09:47;;;;;;;3.65;2.70;;;;;;;-2.64;61.23;98834.66;5072964;28;20447;-55
2023/01/05 05:12:12;;;;;;;6.28;3.55;;;;;;;-2.66;61.37;98840.88;5072784;28;20359;-56
2023/01/05 05:14:38;;;;;;;5.32;3.20;;;;;;;-2.77;60.85;98816.00;5072353;28;20103;-49
2023/01/05 05:17:04;;;;;;;5.65;3.35;;;;;;;-2.59;61.24;98829.25;5072252;28;20497;-49
2023/01/05 05:19:30;;;;;;;7.38;3.78;;;;;;;-2.51;61.50;98845.50;5072280;28;20024;-52
2023/01/05 05:21:56;;;;;;;8.75;3.90;;;;;;;-2.47;61.88;98838.34;5072562;28;20033;-51
2023/01/05 05:24:21;;;;;;;4.72;3.40;;;;;;;-2.40;61.34;98845.03;5072078;28;20066;-55
2023/01/05 05:26:46;;;;;;;8.82;4.15;;;;;;;-2.36;61.17;98845.75;5071707;28;20048;-54
2023/01/05 05:29:12;;;;;;;6.43;4.05;;;;;;;-2.33;60.93;98840.38;5071484;28;20088;-52
2023/01/05 05:31:38;;;;;;;6.13;3.80;;;;;;;-2.52;60.18;98814.94;5071679;28;20078;-56
2023/01/05 05:34:03;;;;;;;6.82;3.78;;;;;;;-2.46;60.62;98840.88;5072336;28;20040;-54
2023/01/05 05:36:29;;;;;;;6.78;4.18;;;;;;;-2.47;60.41;98833.94;5078498;28;20109;-55
2023/01/05 05:38:55;;;;;;;9.60;4.25;;;;;;;-2.45;60.65;98839.97;5077948;28;20036;-54
2023/01/05 05:41:21;;;;;;;7.57;4.53;;;;;;;-2.51;61.22;98840.25;5078484;28;20558;-54
2023/01/05 05:43:46;;;;;;;6.70;3.50;;;;;;;-2.58;60.42;98817.84;5078302;28;20064;-58
2023/01/05 05:46:12;;;;;;;7.75;4.53;;;;;;;-2.46;60.64;98843.50;5078941;28;20154;-54
2023/01/05 05:48:37;;;;;;;12.15;6.32;;;;;;;-2.43;60.76;98845.16;5078186;28;20032;-53
2023/01/05 05:51:03;;;;;;;12.63;6.80;;;;;;;-2.40;60.93;98834.53;5078384;28;20520;-54
2023/01/05 05:53:29;;;;;;;10.57;6.47;;;;;;;-2.33;61.15;98838.59;5079197;28;20460;-56
2023/01/05 05:55:54;;;;;;;10.63;6.10;;;;;;;-2.32;60.64;98831.59;5077663;28;20060;-52
2023/01/05 05:58:20;;;;;;;9.15;4.68;;;;;;;-2.33;60.61;98833.34;5078408;28;20376;-53
2023/01/05 06:00:45;;;;;;;8.35;4.57;;;;;;;-2.31;60.98;98833.28;5077713;28;20121;-57
2023/01/05 06:03:11;;;;;;;7.70;4.82;;;;;;;-2.32;60.84;98839.47;5078124;28;20054;-54
2023/01/05 06:05:36;;;;;;;12.18;5.03;;;;;;;-2.32;60.53;98840.28;5078080;28;20102;-56
2023/01/05 06:08:02;;;;;;;9.98;4.53;;;;;;;-2.52;60.80;98801.00;5078890;28;20445;-57
2023/01/05 06:10:28;;;;;;;9.98;5.07;;;;;;;-2.36;60.85;98833.47;5077756;28;20089;-56
2023/01/05 06:12:54;;;;;;;9.48;4.65;;;;;;;-2.37;61.21;98833.56;5077872;28;20040;-57
2023/01/05 06:15:21;;;;;;;7.40;3.78;;;;;;;-2.35;61.16;98837.81;5078199;28;20035;-53
2023/01/05 06:17:47;;;;;;;7.60;3.83;;;;;;;-2.35;60.81;98813.38;5078701;28;20039;-55
2023/01/05 06:20:13;;;;;;;7.45;3.47;;;;;;;-2.33;60.58;98829.88;5077333;28;20028;-51
2023/01/05 06:22:39;;;;;;;5.68;3.70;;;;;;;-2.34;60.99;98828.19;5077629;28;20090;-54
2023/01/05 06:25:05;;;;;;;6.70;3.63;;;;;;;-2.39;60.51;98812.66;5077868;28;20391;-55
2023/01/05 06:27:30;;;;;;;6.93;4.18;;;;;;;-2.41;60.73;98821.50;5079066;28;20083;-53
2023/01/05 06:29:56;;;;;;;5.50;3.78;;;;;;;-2.57;60.95;98795.09;5078373;28;20036;-59
2023/01/05 06:32:21;;;;;;;6.75;3.53;;;;;;;-2.43;60.63;98818.09;5077272;28;20092;-60
2023/01/05 06:34:47;;;;;;;6.68;3.75;;;;;;;-2.41;60.83;98826.72;5078200;28;20139;-57
2023/01/05 06:37:12;;;;;;;8.07;4.20;;;;;;;-2.40;60.88;98808.31;5078077;28;20029;-56
2023/01/05 06:39:38;;;;;;;7.07;3.58;;;;;;;-2.38;60.59;98803.03;5078271;28;20116;-58
2023/01/05 06:42:03;;;;;;;7.28;4.05;;;;;;;-2.31;60.67;98812.31;5077346;28;20028;-60
2023/01/05 06:44:29;;;;;;;6.20;3.58;;;;;;;-2.31;60.10;98807.91;5078119;28;20032;-59
2023/01/05 06:46:54;;;;;;;6.60;3.47;;;;;;;-2.23;59.81;98819.84;5074788;28;20029;-62
2023/01/05 06:49:20;;;;;;;5.55;3.25;;;;;;;-2.26;59.66;98812.97;5074308;28;20520;-60
2023/01/05 06:51:45;;;;;;;4.72;3.50;;;;;;;-2.28;59.80;98817.41;5074661;28;20029;-60
2023/01/05 06:54:11;;;;;;;6.32;3.85;;;;;;;-2.28;59.83;98808.72;5073625;28;20035;-58
2023/01/05 06:56:36;;;;;;;6.97;3.85;;;;;;;-2.22;59.56;98806.66;5075316;28;20032;-58
2023/01/05 06:59:02;;;;;;;7.30;3.90;;;;;;;-2.18;59.48;98807.38;5075286;28;20037;-61
2023/01/05 07:01:27;;;;;;;6.05;3.67;;;;;;;-2.46;59.82;98816.47;5071901;28;20028;-60
2023/01/05 07:03:53;;;;;;;6.30;4.18;;;;;;;-2.49;60.33;98817.44;5074012;28;20024;-62
2023/01/05 07:06:18;;;;;;;7.75;4.28;;;;;;;-2.50;60.35;98813.13;5074775;28;20033;-60
2023/01/05 07:08:44;;;;;;;7.60;3.83;;;;;;;-2.47;60.37;98822.63;5074241;28;20033;-61
2023/01/05 07:11:09;;;;;;;8.75;3.05;;;;;;;-2.41;60.41;98818.88;5074279;28;20046;-60
2023/01/05 07:13:35;;;;;;;6.57;3.78;;;;;;;-2.40;59.70;98808.31;5074013;28;20020;-61
2023/01/05 07:16:00;;;;;;;6.00;4.25;;;;;;;-2.49;60.27;98820.06;5074296;28;20460;-61
2023/01/05 07:18:26;;;;;;;6.53;3.90;;;;;;;-2.47;60.86;98817.38;5072908;28;20097;-62
2023/01/05 07:20:51;;;;;;;7.15;3.92;;;;;;;-2.44;60.40;98814.63;5073827;28;20086;-60
2023/01/05 07:23:17;;;;;;;6.25;3.40;;;;;;;-2.45;59.88;98805.91;5073837;28;20361;-62
2023/01/05 07:25:42;;;;;;;7.35;3.75;;;;;;;-2.50;60.26;98807.03;5073795;28;20028;-61
2023/01/05 07:28:08;;;;;;;6.78;3.80;;;;;;;-2.48;60.48;98795.53;5072807;28;20067;-62
2023/01/05 07:30:33;;;;;;;4.85;3.47;;;;;;;-2.34;60.16;98802.81;5073551;28;20073;-62
2023/01/05 07:32:59;;;;;;;5.43;3.35;;;;;;;-2.26;59.62;98815.59;5072917;28;20052;-62
2023/01/05 07:35:26;;;;;;;11.52;3.67;;;;;;;-2.24;59.45;98815.53;5074101;28;20040;-61
2023/01/05 07:37:51;;;;;;;5.75;3.47;;;;;;;-2.27;59.74;98806.00;5073413;28;20554;-60
2023/01/05 07:40:17;;;;;;;5.38;3.50;;;;;;;-2.30;59.78;98811.41;5072257;28;20154;-63
2023/01/05 07:42:42;;;;;;;5.43;3.70;;;;;;;-2.33;59.63;98799.25;5073956;28;20027;-63
2023/01/05 07:45:08;;;;;;;6.40;4.13;;;;;;;-2.27;59.90;98813.03;5073600;28;20178;-60
2023/01/05 07:47:33;;;;;;;7.88;4.13;;;;;;;-2.23;59.69;98810.19;5072939;28;20024;-62
2023/01/05 07:49:59;;;;;;;11.07;4.50;;;;;;;-2.14;59.28;98802.84;5073903;28;20423;-61
2023/01/05 07:52:27;;;;;;;8.65;4.68;;;;;;;-2.11;59.59;98800.94;5073370;28;20043;-64
2023/01/05 07:54:52;;;;;;;6.47;4.30;;;;;;;-2.09;59.34;98803.50;5069289;28;20048;-61
2023/01/05 07:57:17;;;;;;;7.28;4.25;;;;;;;-2.17;59.07;98788.97;5073573;28;20468;-61
2023/01/05 07:59:43;;;;;;;7.10;4.18;;;;;;;-2.08;59.18;98794.72;5070725;28;20029;-59
2023/01/05 08:02:09;;;;;;;9.10;3.50;;;;;;;-2.03;59.15;98798.84;5072702;28;20026;-61
2023/01/05 08:04:35;;;;;;;5.40;3.40;;;;;;;-1.98;58.77;98801.22;5073488;28;20033;-60
2023/01/05 08:07:01;;;;;;;7.55;3.75;;;;;;;-1.86;58.45;98797.19;5073639;28;20032;-62
2023/01/05 08:12:10;;;;;;;6.20;4.20;;;;;;;-1.87;58.50;98792.88;5073417;28;20432;-59
2023/01/05 08:14:35;;;;;;;4.80;3.17;;;;;;;-1.86;58.61;98801.59;5073577;28;20474;-58
2023/01/05 08:17:01;;;;;;;7.45;3.67;;;;;;;-1.94;58.87;98773.91;5055480;28;20051;-62
2023/01/05 08:19:26;;;;;;;7.00;4.05;;;;;;;-1.85;58.00;98792.81;5070112;28;20103;-54
2023/01/05 08:21:52;;;;;;;9.18;3.67;;;;;;;-1.88;58.54;98799.91;5071027;28;20033;-60
2023/01/05 08:24:17;;;;;;;7.50;4.78;;;;;;;-1.81;58.67;98796.97;5072850;28;20029;-57
2023/01/05 08:26:43;;;;;;;6.47;3.83;;;;;;;-1.83;58.41;98790.97;5072754;28;20036;-61
2023/01/05 08:29:08;;;;;;;5.75;3.83;;;;;;;-1.89;58.44;98787.69;5073108;28;20067;-59
2023/01/05 08:31:36;;;;;;;6.47;4.10;;;;;;;-1.81;59.11;98794.34;5073012;28;20071;-57
2023/01/05 08:34:02;;;;;;;4.97;3.53;;;;;;;-1.75;58.97;98788.81;5072255;28;20111;-56
2023/01/05 08:36:30;;;;;;;8.77;3.80;;;;;;;-1.66;58.44;98792.78;5072838;28;20028;-54
2023/01/05 08:38:56;;;;;;;5.72;3.72;;;;;;;-1.67;58.82;98796.34;5072527;28;20032;-58
2023/01/05 08:41:24;;;;;;;7.32;4.07;;;;;;;-1.76;57.83;98768.75;5073043;28;20032;-59
2023/01/05 08:43:51;;;;;;;8.45;4.30;;;;;;;-1.73;58.39;98781.72;5072761;28;20043;-59
2023/01/05 08:46:18;;;;;;;7.45;4.55;;;;;;;-1.82;58.66;98782.16;5072339;28;20452;-60
2023/01/05 08:48:50;;;;;;;7.22;4.65;;;;;;;-1.87;58.90;98782.38;5072642;28;20032;-61
2023/01/05 08:51:16;;;;;;;7.82;4.82;;;;;;;-1.97;58.59;98778.47;5072867;28;20203;-57
2023/01/05 08:53:41;;;;;;;11.57;4.50;;;;;;;-2.05;58.79;98776.19;5072879;28;20103;-60
2023/01/05 08:56:08;;;;;;;9.52;5.05;;;;;;;-2.14;59.63;98771.38;5071326;28;20025;-60
2023/01/05 08:58:35;;;;;;;9.20;4.40;;;;;;;-2.10;59.35;98778.19;5071042;28;20025;-58
2023/01/05 09:01:08;;;;;;;12.00;4.90;;;;;;;-2.03;59.28;98780.47;5072607;28;20074;-60
2023/01/05 09:03:34;;;;;;;9.88;4.13;;;;;;;-2.07;58.73;98775.44;5072423;28;20028;-62
2023/01/05 09:06:02;;;;;;;9.27;4.07;;;;;;;-2.01;59.51;98772.50;5071943;28;20452;-73
2023/01/05 09:08:32;;;;;;;7.57;3.58;;;;;;;-1.72;57.24;98765.06;5071700;28;20043;-70
2023/01/05 09:11:09;;;;;;;5.95;3.80;;;;;;;-2.00;57.62;98773.38;5071588;28;20020;-66
2023/01/05 09:13:36;;;;;;;6.00;3.63;;;;;;;-2.20;57.52;98762.84;5072049;28;20123;-63
2023/01/05 09:16:07;;;;;;;6.93;3.33;;;;;;;-2.22;57.68;98766.50;5071458;28;20032;-64
2023/01/05 09:18:33;;;;;;;5.03;2.90;;;;;;;-2.06;56.53;98738.63;5071557;28;20471;-66
2023/01/05 09:20:59;;;;;;;4.95;3.17;;;;;;;-2.05;55.95;98752.59;5071931;28;20052;-55
2023/01/05 09:23:25;;;;;;;4.25;3.33;;;;;;;-2.43;56.47;98756.03;5071551;28;20032;-58
2023/01/05 09:25:50;;;;;;;6.95;3.35;;;;;;;-2.59;57.90;98755.88;5071733;28;20409;-55
2023/01/05 09:28:15;;;;;;;5.47;3.42;;;;;;;-2.51;57.86;98753.75;5071916;28;20025;-56
2023/01/05 09:30:41;;;;;;;6.63;3.03;;;;;;;-2.39;57.05;98746.28;5071220;28;20457;-58
2023/01/05 09:33:07;;;;;;;3.55;2.70;;;;;;;-2.29;57.04;98757.16;5071624;28;20036;-59
2023/01/05 09:35:32;;;;;;;7.95;3.30;;;;;;;-2.19;56.91;98756.69;5070657;28;20037;-59
2023/01/05 09:37:58;;;;;;;3.65;1.85;;;;;;;-2.06;56.66;98749.09;5072043;28;20039;-61
2023/01/05 09:40:24;;;;;;;7.35;3.60;;;;;;;-2.21;56.38;98726.22;5071521;28;20044;-63
2023/01/05 09:42:50;;;;;;;9.43;5.20;;;;;;;-2.28;57.01;98749.25;5069762;28;20093;-63
2023/01/05 09:45:25;;;;;;;13.88;5.53;;;;;;;-2.50;57.65;98752.84;5072004;28;20039;-64
2023/01/05 09:47:52;;;;;;;9.60;5.55;;;;;;;-2.63;58.08;98741.22;5071902;28;20121;-58
2023/01/05 09:50:21;;;;;;;15.85;5.97;;;;;;;-2.88;58.68;98744.88;5068566;28;20036;-64
2023/01/05 09:52:50;;;;;;;8.18;4.57;;;;;;;-3.06;58.66;98710.72;5071620;28;20048;-62
2023/01/05 09:55:18;;;;;;;6.07;3.40;;;;;;;-2.68;58.54;98732.66;5071324;28;20025;-63
2023/01/05 09:58:01;;;;;;;5.40;3.33;;;;;;;-2.67;58.30;98737.00;5071101;28;20032;-64
2023/01/05 10:00:28;;;;;;;8.00;4.32;;;;;;;-2.77;58.44;98736.56;5066894;28;20083;-64
2023/01/05 10:02:55;;;;;;;7.07;4.45;;;;;;;-2.72;57.34;98731.97;5071225;28;20028;-63
2023/01/05 10:05:21;;;;;;;7.10;4.88;;;;;;;-2.94;58.21;98695.38;5071085;28;20036;-63
2023/01/05 10:08:01;;;;;;;12.02;5.13;;;;;;;-2.46;57.27;98724.72;5071776;28;20032;-64
2023/01/05 10:13:01;;;;;;;6.88;3.47;;;;;;;-2.62;58.08;98716.69;5070519;28;20368;-65
2023/01/05 10:13:35;;;;;;;9.88;5.28;;;;;;;-2.80;57.17;98724.44;5058065;28;20033;-65
2023/01/05 10:16:01;;;;;;;7.60;4.40;;;;;;;-2.88;58.06;98729.19;5071600;28;20033;-66
2023/01/05 10:18:29;;;;;;;7.68;4.57;;;;;;;-2.85;57.67;98728.16;5071853;28;20040;-64
2023/01/05 10:21:04;;;;;;;7.47;4.80;;;;;;;-3.06;58.70;98721.19;5070879;28;20028;-62
2023/01/05 10:23:54;;;;;;;9.18;5.10;;;;;;;-2.98;58.98;98726.09;5071840;28;20044;-58
2023/01/05 10:26:33;;;;;;;8.75;4.57;;;;;;;-2.96;58.13;98726.00;5075263;28;20064;-58
2023/01/05 10:29:07;;;;;;;6.93;3.70;;;;;;;-3.04;58.23;98727.19;5075466;28;20117;-53
2023/01/05 10:31:58;;;;;;;7.63;4.75;;;;;;;-2.97;57.98;98714.69;5074252;28;20112;-57
2023/01/05 10:34:42;;;;;;;10.20;4.25;;;;;;;-2.89;58.04;98714.38;5074742;28;20115;-56
2023/01/05 10:37:14;;;;;;;8.35;4.53;;;;;;;-3.08;57.56;98695.97;5075350;28;20045;-59
2023/01/05 10:39:46;;;;;;;11.48;4.57;;;;;;;-2.82;56.71;98717.56;5074895;28;20040;-52
2023/01/05 10:42:53;;;;;;;7.68;3.90;;;;;;;-2.74;57.07;98718.94;5075004;28;20028;-52
2023/01/05 10:45:20;;;;;;;10.00;4.18;;;;;;;-3.05;56.00;98716.78;5064013;28;20345;-54
2023/01/05 10:47:47;;;;;;;7.38;3.75;;;;;;;-3.42;57.36;98713.94;5075272;28;20025;-55
2023/01/05 10:50:19;;;;;;;10.05;4.55;;;;;;;-3.54;57.93;98722.31;5074145;28;20035;-71
2023/01/05 10:52:45;;;;;;;8.77;4.00;;;;;;;-3.67;57.66;98716.72;5073020;28;20610;-50
2023/01/05 10:55:15;;;;;;;9.32;3.90;;;;;;;-3.59;57.51;98724.25;5075309;28;20119;-49
2023/01/05 10:57:41;;;;;;;6.72;3.53;;;;;;;-3.45;57.20;98735.00;5074625;28;20035;-47
2023/01/05 11:00:16;;;;;;;10.52;4.03;;;;;;;-3.38;57.06;98733.81;5075062;28;20436;-48
2023/01/05 11:02:56;;;;;;;6.28;3.92;;;;;;;-3.25;56.42;98730.72;5074638;28;20028;-48
2023/01/05 11:05:22;;;;;;;6.68;4.07;;;;;;;-3.14;55.74;98717.19;5072015;28;20375;-50
2023/01/05 11:07:49;;;;;;;9.23;4.03;;;;;;;-3.24;55.96;98727.19;5074376;28;20039;-48
2023/01/05 11:10:30;;;;;;;8.27;4.20;;;;;;;-3.20;56.47;98729.63;5074186;28;20097;-54
2023/01/05 11:13:05;;;;;;;8.18;3.83;;;;;;;-3.17;55.17;98728.63;5074154;28;20445;-46
2023/01/05 11:15:39;;;;;;;9.25;4.78;;;;;;;-3.19;55.01;98722.59;5073888;28;20113;-46
2023/01/05 11:18:06;;;;;;;10.40;4.23;;;;;;;-3.36;55.17;98691.91;5073928;28;20059;-48
2023/01/05 11:20:31;;;;;;;8.57;4.47;;;;;;;-3.13;54.05;98729.34;5074083;28;20064;-48
2023/01/05 11:22:57;;;;;;;6.90;3.92;;;;;;;-3.52;54.83;98694.31;5074181;28;20056;-48
2023/01/05 11:25:27;;;;;;;7.88;3.97;;;;;;;-3.27;54.54;98728.16;5074313;28;20051;-49
2023/01/05 11:28:15;;;;;;;6.47;4.13;;;;;;;-3.44;54.79;98726.22;5073423;28;20052;-66
2023/01/05 11:30:53;;;;;;;8.30;4.32;;;;;;;-3.76;55.52;98691.78;5072846;28;20383;-50
2023/01/05 11:33:24;;;;;;;7.22;3.63;;;;;;;-3.43;54.70;98721.88;5073611;28;20068;-52
2023/01/05 11:35:50;;;;;;;7.47;3.88;;;;;;;-3.68;54.85;98718.47;5073859;28;20083;-51
2023/01/05 11:38:22;;;;;;;8.98;4.55;;;;;;;-3.65;55.24;98723.56;5073748;28;20468;-52
2023/01/05 11:40:48;;;;;;;10.88;4.45;;;;;;;-3.64;54.72;98729.66;5073475;28;20033;-51
2023/01/05 11:43:18;;;;;;;9.55;4.63;;;;;;;-3.62;55.43;98722.63;5073583;28;20173;-51
2023/01/05 11:45:51;;;;;;;10.85;4.38;;;;;;;-3.54;55.19;98730.16;5074259;28;20117;-47
2023/01/05 11:48:21;;;;;;;10.10;4.50;;;;;;;-3.51;54.42;98724.78;5073766;28;20086;-53
2023/01/05 11:50:50;;;;;;;9.73;4.57;;;;;;;-3.76;54.73;98724.00;5072357;28;20032;-53
2023/01/05 11:53:35;;;;;;;9.43;4.20;;;;;;;-3.85;55.38;98720.94;5072433;28;20089;-52
2023/01/05 11:56:06;;;;;;;9.90;4.60;;;;;;;-3.87;55.25;98723.59;5073322;28;20032;-55
2023/01/05 11:58:43;;;;;;;10.68;4.30;;;;;;;-3.91;55.94;98722.84;5072727;28;20444;-55
2023/01/05 12:01:27;;;;;;;9.30;4.85;;;;;;;-3.83;55.48;98729.56;5073217;28;20033;-50
2023/01/05 12:04:15;;;;;;;9.85;4.57;;;;;;;-3.87;55.86;98717.50;5073611;28;20098;-51
2023/01/05 12:07:18;;;;;;;10.45;4.18;;;;;;;-3.96;56.31;98718.72;5072448;28;20032;-52
2023/01/05 12:09:54;;;;;;;14.23;5.30;;;;;;;-4.09;56.04;98718.34;5073557;28;20044;-51
2023/01/05 12:12:22;;;;;;;9.27;4.70;;;;;;;-4.21;56.48;98715.28;5072409;28;20372;-61